Sherwood, Ohio
Current Conditions -  °F | °C
As of 4:35 PM on Friday 31 Oct 2014 (Local Time) from KDFI Reporting Station
Light Rain Light Rain  
Wind Chill: 33°   Ceiling: 2400
Heat Index: 40°   Visibility: 6mi
Dew Point: 36°   Wind: 13mph
Humidity: 86%   Direction: 360°N
Pressure: 29.93"   Gusts: 24mph
Location:  41.29°N, 84.55°W
Report Text: KDFI 312035Z AUTO 36011G21KT 6SM -RA BR FEW009 BKN024 OVC038 04/02 A2993 RMK AO2 PK WND 33029/2017 P0003 T00440022 $
Loading
Personal Weather Stations






























Interactive Weather Map
Tropical Storm Tracking
New forecast layout! Learn more

10-Day Weather Forecast

Advertisements
Track Severe Weather on mobile